Time;durP1;ratioP1;P1;durP2;ratioP2;P2;SDS_P1;SDS_P2;PMS_P1;PMS_P2;Temp;Humidity;BMP_temperature;BMP_pressure;BME280_temperature;BME280_humidity;BME280_pressure;Samples;Min_cycle;Max_cycle;Signal;HPM_P1;HPM_P2
2022/01/31 00:00:42;;;;;;;20.85;4.30;;;20.60;46.40;;;;;;4418389;32;20480;-63
2022/01/31 00:03:08;;;;;;;17.40;4.28;;;20.70;46.40;;;;;;4428072;32;20093;-63
2022/01/31 00:05:33;;;;;;;13.75;4.22;;;20.60;46.40;;;;;;4427894;32;20068;-63
2022/01/31 00:07:59;;;;;;;18.45;4.80;;;20.60;46.40;;;;;;4427819;32;20090;-63
2022/01/31 00:10:30;;;;;;;19.08;3.78;;;20.50;46.40;;;;;;4428359;32;20088;-63
2022/01/31 00:13:07;;;;;;;20.85;5.15;;;20.50;46.50;;;;;;4428477;32;20432;-63
2022/01/31 00:15:38;;;;;;;16.17;4.28;;;20.50;46.50;;;;;;4428080;32;20605;-63
2022/01/31 00:18:05;;;;;;;15.23;3.63;;;20.50;46.60;;;;;;4428594;32;20097;-63
2022/01/31 00:20:31;;;;;;;20.00;4.05;;;20.40;46.60;;;;;;4426911;32;20100;-63
2022/01/31 00:22:57;;;;;;;16.73;4.20;;;20.40;46.60;;;;;;4428363;32;20062;-63
2022/01/31 00:25:23;;;;;;;17.92;4.07;;;20.40;46.70;;;;;;4428112;32;20083;-63
2022/01/31 00:27:48;;;;;;;9.77;3.22;;;20.40;47.60;;;;;;4428338;32;20200;-63
2022/01/31 00:30:15;;;;;;;15.48;3.78;;;20.30;46.70;;;;;;4428224;32;20173;-63
2022/01/31 00:32:42;;;;;;;15.52;3.90;;;20.30;46.70;;;;;;4428945;32;20070;-63
2022/01/31 00:35:08;;;;;;;14.68;3.55;;;20.30;46.70;;;;;;4429300;32;20078;-63
2022/01/31 00:37:34;;;;;;;12.77;3.80;;;20.30;46.70;;;;;;4428508;32;20517;-63
2022/01/31 00:40:00;;;;;;;19.10;4.15;;;20.20;46.70;;;;;;4428306;32;20151;-63
2022/01/31 00:42:28;;;;;;;16.75;3.75;;;20.20;46.70;;;;;;4428048;32;20220;-63
2022/01/31 00:44:57;;;;;;;14.98;4.15;;;20.20;46.80;;;;;;4427254;32;20090;-63
2022/01/31 00:47:30;;;;;;;12.63;3.38;;;20.20;46.80;;;;;;4427012;32;20193;-63
2022/01/31 00:50:10;;;;;;;14.00;3.83;;;20.20;46.80;;;;;;4426689;32;20090;-63
2022/01/31 00:52:38;;;;;;;12.73;3.42;;;20.10;46.80;;;;;;4426423;32;20082;-63
2022/01/31 00:55:06;;;;;;;11.73;3.78;;;20.10;46.80;;;;;;4428704;32;20167;-63
2022/01/31 00:57:32;;;;;;;15.40;3.65;;;20.10;46.80;;;;;;4428769;32;20088;-63
2022/01/31 00:59:59;;;;;;;14.27;3.83;;;20.10;46.80;;;;;;4429235;32;20122;-63
2022/01/31 01:02:26;;;;;;;14.82;3.88;;;20.10;46.80;;;;;;4428425;32;20141;-63
2022/01/31 01:04:52;;;;;;;11.50;3.22;;;20.00;46.70;;;;;;4429036;32;20090;-63
2022/01/31 01:07:22;;;;;;;11.40;3.53;;;20.00;46.80;;;;;;4429167;32;20106;-63
2022/01/31 01:09:48;;;;;;;12.77;3.70;;;20.00;46.80;;;;;;4428663;32;20097;-63
2022/01/31 01:12:16;;;;;;;9.65;3.20;;;20.00;46.80;;;;;;4428931;32;20122;-63
2022/01/31 01:14:42;;;;;;;11.57;3.05;;;20.00;46.80;;;;;;4428699;32;20412;-63
2022/01/31 01:17:08;;;;;;;8.00;2.63;;;20.00;46.80;;;;;;4429215;32;20090;-63
2022/01/31 01:19:34;;;;;;;12.82;3.30;;;19.90;46.80;;;;;;4428619;32;20074;-63
2022/01/31 01:22:00;;;;;;;7.95;2.65;;;19.90;46.80;;;;;;4431457;32;20405;-63
2022/01/31 01:24:26;;;;;;;11.95;3.00;;;19.90;46.80;;;;;;4431767;32;20514;-63
2022/01/31 01:26:53;;;;;;;12.55;3.53;;;19.90;46.80;;;;;;4418013;32;20497;-63
2022/01/31 01:29:20;;;;;;;11.23;3.22;;;19.80;46.80;;;;;;4431938;32;20126;-62
2022/01/31 01:31:47;;;;;;;10.88;2.83;;;19.80;46.80;;;;;;4431674;32;20090;-63
2022/01/31 01:34:13;;;;;;;10.38;2.88;;;19.80;46.80;;;;;;4431622;32;20097;-63
2022/01/31 01:36:42;;;;;;;8.65;2.80;;;19.80;46.80;;;;;;4431571;32;20518;-63
2022/01/31 01:39:08;;;;;;;7.90;2.75;;;19.80;46.90;;;;;;4431834;32;20082;-63
2022/01/31 01:41:34;;;;;;;8.60;2.75;;;19.70;46.80;;;;;;4431844;32;20074;-63
2022/01/31 01:43:59;;;;;;;8.98;2.75;;;19.80;46.90;;;;;;4431756;32;20070;-63
2022/01/31 01:46:26;;;;;;;12.18;3.05;;;19.70;46.90;;;;;;4431732;32;20066;-63
2022/01/31 01:48:51;;;;;;;8.40;2.60;;;19.70;46.90;;;;;;4431629;32;20170;-63
2022/01/31 01:51:19;;;;;;;10.57;2.92;;;19.70;46.90;;;;;;4431656;32;20086;-63
2022/01/31 01:53:45;;;;;;;8.85;3.10;;;19.70;47.00;;;;;;4431355;32;20070;-63
2022/01/31 01:56:11;;;;;;;8.82;2.90;;;19.70;47.00;;;;;;4431540;32;20520;-63
2022/01/31 01:58:42;;;;;;;7.55;2.45;;;19.70;47.00;;;;;;4431250;32;20094;-63
2022/01/31 02:01:10;;;;;;;7.95;2.40;;;19.60;47.00;;;;;;4431610;32;20130;-63
2022/01/31 02:03:38;;;;;;;9.75;3.03;;;19.60;47.00;;;;;;4430953;32;20540;-64
2022/01/31 02:06:05;;;;;;;7.38;2.70;;;19.60;47.00;;;;;;4431353;32;20124;-63
2022/01/31 02:08:43;;;;;;;8.02;2.20;;;19.60;47.00;;;;;;4431103;32;20172;-63
2022/01/31 02:11:11;;;;;;;5.35;2.42;;;19.60;47.00;;;;;;4431673;32;20236;-63
2022/01/31 02:13:38;;;;;;;8.48;2.65;;;19.50;47.10;;;;;;4431274;32;20220;-63
2022/01/31 02:16:06;;;;;;;9.88;2.60;;;19.50;47.10;;;;;;4431274;32;20409;-64
2022/01/31 02:18:32;;;;;;;6.45;2.20;;;19.50;47.10;;;;;;4431148;32;20643;-63
2022/01/31 02:20:59;;;;;;;7.30;2.70;;;19.50;47.20;;;;;;4431176;32;20089;-64
2022/01/31 02:23:27;;;;;;;6.05;2.40;;;19.50;47.20;;;;;;4431232;32;20484;-63
2022/01/31 02:26:03;;;;;;;9.23;2.75;;;19.50;47.20;;;;;;4430546;32;20136;-64
2022/01/31 02:28:33;;;;;;;6.22;2.15;;;19.50;47.20;;;;;;4431206;32;20244;-63
2022/01/31 02:31:00;;;;;;;8.82;2.83;;;19.50;47.20;;;;;;4430980;32;20194;-63
2022/01/31 02:33:27;;;;;;;5.22;2.00;;;19.40;47.20;;;;;;4431239;32;20090;-63
2022/01/31 02:35:56;;;;;;;5.85;2.25;;;19.40;47.20;;;;;;4430759;32;20545;-63
2022/01/31 02:38:23;;;;;;;6.18;2.10;;;19.40;47.20;;;;;;4429733;32;20094;-63
2022/01/31 02:40:50;;;;;;;7.35;2.35;;;19.40;47.30;;;;;;4429503;32;20166;-64
2022/01/31 02:43:24;;;;;;;5.97;2.45;;;19.40;47.30;;;;;;4430919;32;20640;-63
2022/01/31 02:45:51;;;;;;;5.35;2.20;;;19.40;47.30;;;;;;4430661;32;20098;-63
2022/01/31 02:48:20;;;;;;;7.40;2.20;;;19.40;48.20;;;;;;4431078;32;20066;-64
2022/01/31 02:50:46;;;;;;;6.40;2.10;;;19.40;47.30;;;;;;4430800;32;20510;-64
2022/01/31 02:53:13;;;;;;;5.40;2.13;;;19.30;47.20;;;;;;4416952;32;20090;-63
2022/01/31 02:55:41;;;;;;;7.00;2.13;;;19.30;47.30;;;;;;4430661;32;20208;-64
2022/01/31 02:58:07;;;;;;;6.50;2.50;;;19.30;47.30;;;;;;4430723;32;20172;-63
2022/01/31 03:00:34;;;;;;;4.63;1.70;;;19.30;47.20;;;;;;4430398;32;20091;-63
2022/01/31 03:03:02;;;;;;;3.67;1.88;;;19.30;47.30;;;;;;4430477;32;20505;-63
2022/01/31 03:05:28;;;;;;;5.63;2.30;;;19.30;47.40;;;;;;4430490;32;20316;-63
2022/01/31 03:07:53;;;;;;;4.22;1.73;;;19.30;47.30;;;;;;4430347;32;20090;-64
2022/01/31 03:10:19;;;;;;;6.97;2.33;;;19.30;47.30;;;;;;4430469;32;20125;-63
2022/01/31 03:12:45;;;;;;;4.07;1.60;;;19.20;47.30;;;;;;4416362;32;20089;-63
2022/01/31 03:15:11;;;;;;;7.63;2.05;;;19.20;47.30;;;;;;4430237;32;20094;-63
2022/01/31 03:17:38;;;;;;;4.50;2.10;;;19.20;47.30;;;;;;4430347;32;20074;-64
2022/01/31 03:20:05;;;;;;;5.93;2.42;;;19.20;47.30;;;;;;4430368;32;20276;-63
2022/01/31 03:22:31;;;;;;;4.90;1.70;;;19.20;47.30;;;;;;4430526;32;20090;-63
2022/01/31 03:24:57;;;;;;;5.60;1.95;;;19.20;47.30;;;;;;4430096;32;20545;-63
2022/01/31 03:27:23;;;;;;;4.80;1.60;;;19.20;47.30;;;;;;4430206;32;20636;-63
2022/01/31 03:29:49;;;;;;;4.45;1.58;;;19.20;47.30;;;;;;4429974;32;20111;-63
2022/01/31 03:32:15;;;;;;;4.75;1.90;;;19.20;47.30;;;;;;4430490;32;20154;-63
2022/01/31 03:34:40;;;;;;;4.03;1.75;;;19.20;47.30;;;;;;4430068;32;20212;-64
2022/01/31 03:37:06;;;;;;;4.90;1.80;;;19.10;47.30;;;;;;4429047;32;20089;-64
2022/01/31 03:39:32;;;;;;;5.15;1.48;;;19.10;47.30;;;;;;4430062;32;20067;-64
2022/01/31 03:41:58;;;;;;;5.07;1.73;;;19.10;47.30;;;;;;4429799;32;20063;-64
2022/01/31 03:44:24;;;;;;;6.35;2.05;;;19.10;47.40;;;;;;4429715;32;20155;-64
2022/01/31 03:46:50;;;;;;;3.65;1.52;;;19.10;47.40;;;;;;4429639;32;20070;-64
2022/01/31 03:49:16;;;;;;;3.08;1.17;;;19.10;47.40;;;;;;4429941;32;20059;-64
2022/01/31 03:51:41;;;;;;;4.57;1.50;;;19.10;47.40;;;;;;4429639;32;20181;-63
2022/01/31 03:54:07;;;;;;;4.78;1.60;;;19.10;47.40;;;;;;4430095;32;20078;-64
2022/01/31 03:56:35;;;;;;;4.78;1.42;;;19.00;47.40;;;;;;4429508;32;20097;-64
2022/01/31 03:59:03;;;;;;;5.45;1.40;;;19.00;47.40;;;;;;4429734;32;20167;-63
2022/01/31 04:01:29;;;;;;;3.45;1.25;;;19.00;47.40;;;;;;4428806;32;20102;-64
2022/01/31 04:03:55;;;;;;;3.22;1.60;;;19.00;47.40;;;;;;4429512;32;20542;-63
2022/01/31 04:06:23;;;;;;;3.20;1.23;;;19.00;47.50;;;;;;4429611;32;20486;-63
2022/01/31 04:08:50;;;;;;;4.20;1.52;;;19.00;47.50;;;;;;4428329;32;20118;-63
2022/01/31 04:11:16;;;;;;;3.80;1.48;;;19.00;47.50;;;;;;4429544;32;20235;-63
2022/01/31 04:13:42;;;;;;;3.95;1.48;;;19.00;47.60;;;;;;4429517;32;20089;-63
2022/01/31 04:16:07;;;;;;;4.03;1.30;;;19.00;47.60;;;;;;4429160;32;20398;-64
2022/01/31 04:18:33;;;;;;;5.30;1.77;;;19.00;47.60;;;;;;4429526;32;20083;-64
2022/01/31 04:21:00;;;;;;;2.70;1.35;;;19.00;47.60;;;;;;4428122;32;20114;-63
2022/01/31 04:23:29;;;;;;;4.15;1.33;;;18.90;47.60;;;;;;4429463;32;20178;-64
2022/01/31 04:26:02;;;;;;;3.90;1.50;;;18.90;47.60;;;;;;4428837;32;20131;-63
2022/01/31 04:28:39;;;;;;;4.25;1.80;;;18.90;47.70;;;;;;4429695;32;20266;-63
2022/01/31 04:31:34;;;;;;;3.45;1.20;;;18.90;47.70;;;;;;4429436;32;20137;-64
2022/01/31 04:34:00;;;;;;;3.95;1.48;;;18.90;47.70;;;;;;4429477;32;20078;-64
2022/01/31 04:36:26;;;;;;;3.28;1.20;;;18.90;47.70;;;;;;4428976;32;20387;-63
2022/01/31 04:38:51;;;;;;;5.22;1.27;;;18.90;47.70;;;;;;4429242;32;20109;-63
2022/01/31 04:41:17;;;;;;;3.40;1.30;;;18.90;47.70;;;;;;4429005;32;20094;-63
2022/01/31 04:43:49;;;;;;;2.83;1.10;;;18.90;47.70;;;;;;4416169;32;20137;-63
2022/01/31 04:46:15;;;;;;;2.83;1.42;;;18.90;47.80;;;;;;4429122;32;20635;-63
2022/01/31 04:48:45;;;;;;;3.45;1.10;;;18.90;47.80;;;;;;4429104;32;20078;-63
2022/01/31 04:51:20;;;;;;;3.40;1.30;;;18.80;47.70;;;;;;4429359;32;20379;-63
2022/01/31 04:53:46;;;;;;;3.92;1.35;;;18.80;47.70;;;;;;4428823;32;20180;-63
2022/01/31 04:56:13;;;;;;;3.70;1.55;;;18.80;47.80;;;;;;4414298;32;20067;-63
2022/01/31 04:58:40;;;;;;;4.38;1.42;;;18.80;47.80;;;;;;4427702;32;20493;-63
2022/01/31 05:01:06;;;;;;;4.07;1.35;;;18.80;47.80;;;;;;4428727;32;20082;-64
2022/01/31 05:03:32;;;;;;;2.67;1.20;;;18.80;47.80;;;;;;4429223;32;20073;-64
2022/01/31 05:05:59;;;;;;;4.22;1.42;;;18.80;47.80;;;;;;4428675;32;20189;-63
2022/01/31 05:08:27;;;;;;;4.45;1.58;;;18.80;47.90;;;;;;4429311;32;20097;-63
2022/01/31 05:10:53;;;;;;;4.72;1.38;;;18.70;47.90;;;;;;4428910;32;20172;-63
2022/01/31 05:13:20;;;;;;;6.18;1.55;;;18.70;47.90;;;;;;4429114;32;20138;-63
2022/01/31 05:15:46;;;;;;;3.65;1.33;;;18.70;47.90;;;;;;4428753;32;20121;-63
2022/01/31 05:18:12;;;;;;;3.45;1.35;;;18.70;47.90;;;;;;4428607;32;20088;-63
2022/01/31 05:20:38;;;;;;;3.38;1.10;;;18.70;47.90;;;;;;4428591;32;20449;-63
2022/01/31 05:23:06;;;;;;;2.92;1.15;;;18.70;48.00;;;;;;4428404;32;20519;-63
2022/01/31 05:25:32;;;;;;;6.38;1.65;;;18.70;48.00;;;;;;4428738;32;20420;-63
2022/01/31 05:27:58;;;;;;;2.80;1.30;;;18.70;48.00;;;;;;4427593;32;20089;-63
2022/01/31 05:30:24;;;;;;;3.83;1.48;;;18.70;48.00;;;;;;4429044;32;20082;-63
2022/01/31 05:32:50;;;;;;;7.90;1.50;;;18.70;48.00;;;;;;4428555;32;20074;-63
2022/01/31 05:35:16;;;;;;;3.45;1.38;;;18.60;47.90;;;;;;4428660;32;20083;-64
2022/01/31 05:37:42;;;;;;;3.42;1.45;;;18.60;47.90;;;;;;4428936;32;20059;-63
2022/01/31 05:40:09;;;;;;;6.10;1.50;;;18.60;47.90;;;;;;4428486;32;20224;-63
2022/01/31 05:42:35;;;;;;;4.00;1.17;;;18.60;47.90;;;;;;4428719;32;20172;-63
2022/01/31 05:45:02;;;;;;;4.60;1.40;;;18.60;47.90;;;;;;4428642;32;20102;-63
2022/01/31 05:47:28;;;;;;;4.25;1.38;;;18.60;47.90;;;;;;4427974;32;20079;-63
2022/01/31 05:49:54;;;;;;;3.35;1.10;;;18.60;47.90;;;;;;4427771;32;20077;-63
2022/01/31 05:52:20;;;;;;;4.72;1.45;;;18.60;47.90;;;;;;4427425;32;20118;-63
2022/01/31 05:54:46;;;;;;;4.90;1.38;;;18.60;47.90;;;;;;4427571;32;20077;-63
2022/01/31 05:57:12;;;;;;;4.50;1.50;;;18.60;48.00;;;;;;4427598;32;20078;-63
2022/01/31 05:59:39;;;;;;;4.35;1.45;;;18.60;48.00;;;;;;4402804;32;20055;-63
2022/01/31 06:02:05;;;;;;;3.90;1.38;;;18.60;48.00;;;;;;4411915;32;20292;-64
2022/01/31 06:04:31;;;;;;;6.30;1.50;;;18.60;48.00;;;;;;4421915;32;20106;-63
2022/01/31 06:06:59;;;;;;;5.53;1.50;;;18.50;47.90;;;;;;4413313;32;20090;-63
2022/01/31 06:09:27;;;;;;;5.97;1.30;;;18.60;48.00;;;;;;4414880;32;20267;-63
2022/01/31 06:11:53;;;;;;;5.15;1.50;;;18.50;47.90;;;;;;4416005;32;20410;-63
2022/01/31 06:14:19;;;;;;;4.80;1.73;;;18.50;48.00;;;;;;4427248;32;20359;-63
2022/01/31 06:16:45;;;;;;;5.45;1.45;;;18.50;48.00;;;;;;4429615;32;20078;-63
2022/01/31 06:19:11;;;;;;;3.65;1.60;;;18.50;48.00;;;;;;4430163;32;20054;-63
2022/01/31 06:21:37;;;;;;;3.78;1.20;;;18.50;48.00;;;;;;4416422;32;20232;-63
2022/01/31 06:24:08;;;;;;;4.78;1.30;;;18.50;48.00;;;;;;4430087;32;20074;-63
2022/01/31 06:26:34;;;;;;;4.75;1.20;;;18.50;48.00;;;;;;4430274;32;20509;-63
2022/01/31 06:29:01;;;;;;;4.18;1.45;;;18.50;48.00;;;;;;4430191;32;20283;-63
2022/01/31 06:31:27;;;;;;;5.20;1.45;;;18.50;48.00;;;;;;4430822;32;20082;-63
2022/01/31 06:33:53;;;;;;;5.57;1.58;;;18.50;48.30;;;;;;4431123;32;20181;-63
2022/01/31 06:36:22;;;;;;;5.15;1.23;;;18.50;48.00;;;;;;4430727;32;20098;-63
2022/01/31 06:38:48;;;;;;;4.72;1.70;;;18.50;48.10;;;;;;4430076;32;20623;-63
2022/01/31 06:41:16;;;;;;;5.75;1.52;;;18.40;48.00;;;;;;4429762;32;20402;-63
2022/01/31 06:43:42;;;;;;;4.15;1.48;;;18.40;48.00;;;;;;4420403;32;20474;-63
2022/01/31 06:46:08;;;;;;;5.78;1.20;;;18.40;48.00;;;;;;4414773;32;20129;-63
2022/01/31 06:48:34;;;;;;;5.63;1.42;;;18.40;48.10;;;;;;4401584;32;20082;-63
2022/01/31 06:51:00;;;;;;;7.63;1.42;;;18.40;48.10;;;;;;4415480;32;20122;-63
2022/01/31 06:53:28;;;;;;;6.40;1.75;;;18.40;48.10;;;;;;4415255;32;20524;-63
2022/01/31 06:55:57;;;;;;;3.95;1.00;;;18.40;48.10;;;;;;4415412;32;20071;-63
2022/01/31 06:58:24;;;;;;;4.40;1.35;;;18.40;49.10;;;;;;4415037;32;20093;-63
2022/01/31 07:00:51;;;;;;;5.60;1.55;;;18.40;48.20;;;;;;4415357;32;20407;-63
2022/01/31 07:03:17;;;;;;;4.07;1.52;;;18.40;48.20;;;;;;4415014;32;20149;-63
2022/01/31 07:05:44;;;;;;;4.00;1.10;;;18.40;48.20;;;;;;4415207;32;20082;-63
2022/01/31 07:08:12;;;;;;;6.15;1.70;;;18.30;48.20;;;;;;4414978;32;20079;-63
2022/01/31 07:10:38;;;;;;;5.13;1.50;;;18.30;48.20;;;;;;4414899;32;20091;-63
2022/01/31 07:13:24;;;;;;;3.90;1.30;;;18.30;48.20;;;;;;4415387;32;20639;-63
2022/01/31 07:15:50;;;;;;;4.70;1.35;;;18.30;48.20;;;;;;4415066;32;20145;-63
2022/01/31 07:18:17;;;;;;;4.28;1.13;;;18.30;48.20;;;;;;4414080;32;20224;-63
2022/01/31 07:20:46;;;;;;;4.88;1.42;;;18.30;48.20;;;;;;4415076;32;20505;-63
2022/01/31 07:23:26;;;;;;;4.07;1.63;;;18.30;48.20;;;;;;4415029;32;20087;-63
2022/01/31 07:25:53;;;;;;;3.35;1.20;;;18.30;48.30;;;;;;4415062;32;20071;-63
2022/01/31 07:28:19;;;;;;;4.70;1.35;;;18.30;48.30;;;;;;4414752;32;20117;-64
2022/01/31 07:30:51;;;;;;;4.43;1.17;;;18.30;48.30;;;;;;4414241;32;20560;-63
2022/01/31 07:33:18;;;;;;;7.88;1.50;;;18.30;48.40;;;;;;4414198;32;20080;-63
2022/01/31 07:35:47;;;;;;;10.18;1.90;;;18.30;48.20;;;;;;4414211;32;20095;-63
2022/01/31 07:38:14;;;;;;;6.88;1.50;;;18.20;47.50;;;;;;4414187;32;20279;-63
2022/01/31 07:40:40;;;;;;;4.43;1.55;;;18.20;47.10;;;;;;4425522;32;20272;-63
2022/01/31 07:43:06;;;;;;;10.13;2.00;;;18.20;47.20;;;;;;4416089;32;20067;-63
2022/01/31 07:45:32;;;;;;;6.90;1.60;;;18.10;47.60;;;;;;4413165;32;20157;-63
2022/01/31 07:47:58;;;;;;;6.68;1.40;;;18.10;47.90;;;;;;4413515;32;20063;-63
2022/01/31 07:50:24;;;;;;;9.60;1.50;;;18.10;48.10;;;;;;4413875;32;20273;-63
2022/01/31 07:52:50;;;;;;;5.07;1.58;;;18.10;48.10;;;;;;4416467;32;20158;-63
2022/01/31 07:55:17;;;;;;;6.60;1.67;;;18.10;48.20;;;;;;4414653;32;20379;-63
2022/01/31 07:57:45;;;;;;;6.88;1.65;;;18.10;48.30;;;;;;4414491;32;20522;-63
2022/01/31 08:00:12;;;;;;;8.27;1.80;;;18.10;48.40;;;;;;4414374;32;20098;-63
2022/01/31 08:02:39;;;;;;;5.63;1.73;;;18.10;48.40;;;;;;4414283;32;20220;-62
2022/01/31 08:05:07;;;;;;;5.35;1.73;;;18.20;48.60;;;;;;4414431;32;20095;-63
2022/01/31 08:07:36;;;;;;;5.03;1.45;;;18.20;48.50;;;;;;4414196;32;20078;-63
2022/01/31 08:10:05;;;;;;;6.90;1.58;;;18.20;48.60;;;;;;4414839;32;20089;-63
2022/01/31 08:12:33;;;;;;;7.68;1.55;;;18.20;48.50;;;;;;4414031;32;20083;-63
2022/01/31 08:15:04;;;;;;;6.13;1.52;;;18.30;48.40;;;;;;4400598;32;20188;-63
2022/01/31 08:17:30;;;;;;;5.10;1.27;;;18.30;48.40;;;;;;4414058;32;20174;-63
2022/01/31 08:19:56;;;;;;;7.90;1.52;;;18.40;48.30;;;;;;4414460;32;20070;-63
2022/01/31 08:22:21;;;;;;;7.75;1.40;;;18.40;48.20;;;;;;4413543;32;20513;-63
2022/01/31 08:24:47;;;;;;;5.72;1.30;;;18.50;48.10;;;;;;4414328;32;20125;-63
2022/01/31 08:27:13;;;;;;;6.05;1.42;;;18.60;47.90;;;;;;4413801;32;20387;-63
2022/01/31 08:29:40;;;;;;;8.75;1.80;;;18.70;47.70;;;;;;4413437;32;20508;-63
2022/01/31 08:32:20;;;;;;;6.70;1.60;;;18.80;47.50;;;;;;4413470;32;20520;-63
2022/01/31 08:37:30;;;;;;;10.70;1.55;;;19.00;47.40;;;;;;4426892;32;20233;-64
2022/01/31 08:39:57;;;;;;;3.35;1.08;;;19.10;47.30;;;;;;4429256;32;20519;-63
2022/01/31 08:42:23;;;;;;;5.20;1.60;;;19.20;47.30;;;;;;4428918;32;20171;-63
2022/01/31 08:44:49;;;;;;;5.30;1.60;;;19.30;47.20;;;;;;4428368;32;20070;-63
2022/01/31 08:47:16;;;;;;;4.55;1.40;;;19.40;47.00;;;;;;4429126;32;20082;-63
2022/01/31 08:49:42;;;;;;;6.40;1.52;;;19.50;46.80;;;;;;4428818;32;20074;-63
2022/01/31 08:52:08;;;;;;;6.10;1.30;;;19.70;46.70;;;;;;4429237;32;20090;-63
2022/01/31 08:54:34;;;;;;;7.25;1.40;;;19.70;46.50;;;;;;4427773;32;20070;-63
2022/01/31 08:57:01;;;;;;;4.65;1.13;;;19.90;46.40;;;;;;4429001;32;20279;-63
2022/01/31 08:59:28;;;;;;;3.47;1.20;;;20.00;46.20;;;;;;4428797;32;20224;-63
2022/01/31 09:02:04;;;;;;;5.90;1.35;;;20.10;46.00;;;;;;4415300;32;20224;-63
2022/01/31 09:04:41;;;;;;;8.05;1.30;;;20.20;45.90;;;;;;4428870;32;20122;-63
2022/01/31 09:07:08;;;;;;;4.22;1.25;;;20.30;45.70;;;;;;4429262;32;20078;-62
2022/01/31 09:09:36;;;;;;;4.13;1.13;;;20.40;45.50;;;;;;4415417;32;20086;-63
2022/01/31 09:12:06;;;;;;;4.47;1.02;;;20.50;45.40;;;;;;4429143;32;20085;-63
2022/01/31 09:14:32;;;;;;;5.72;1.20;;;20.50;45.30;;;;;;4428434;32;20109;-63
2022/01/31 09:16:58;;;;;;;5.47;1.30;;;20.50;45.20;;;;;;4427664;32;20494;-63
2022/01/31 09:19:24;;;;;;;6.15;0.95;;;20.50;45.20;;;;;;4428673;32;20082;-63
2022/01/31 09:21:50;;;;;;;10.48;1.50;;;20.50;45.20;;;;;;4428148;32;20268;-63
2022/01/31 09:24:15;;;;;;;7.00;1.38;;;20.50;45.20;;;;;;4428909;32;20085;-63
2022/01/31 09:26:41;;;;;;;6.43;1.38;;;20.50;45.10;;;;;;4428748;32;20363;-63
2022/01/31 09:29:07;;;;;;;4.25;1.27;;;20.50;45.10;;;;;;4429059;32;20062;-62
2022/01/31 09:31:33;;;;;;;8.52;1.42;;;20.60;45.00;;;;;;4423146;32;20067;-63
2022/01/31 09:33:59;;;;;;;3.50;1.13;;;20.60;45.00;;;;;;4413442;32;20059;-65
2022/01/31 09:36:25;;;;;;;7.47;1.27;;;20.50;44.90;;;;;;4413726;32;20074;-63
2022/01/31 09:38:51;;;;;;;5.43;1.30;;;20.50;45.00;;;;;;4413125;32;20134;-63
2022/01/31 09:41:21;;;;;;;7.32;1.17;;;20.50;45.00;;;;;;4413669;32;20506;-63
2022/01/31 09:48:56;;;;;;;6.00;1.00;;;20.30;45.30;;;;;;4416492;32;20086;-63
2022/01/31 09:51:24;;;;;;;3.13;1.05;;;20.20;45.30;;;;;;4416345;32;20109;-63
2022/01/31 09:53:55;;;;;;;5.40;1.27;;;20.20;45.40;;;;;;4416100;32;20551;-63
2022/01/31 09:56:25;;;;;;;5.93;1.00;;;20.20;45.50;;;;;;4415205;32;20099;-63
2022/01/31 09:58:53;;;;;;;6.72;1.17;;;20.20;45.60;;;;;;4415985;32;20082;-63
2022/01/31 10:01:32;;;;;;;6.32;1.17;;;20.10;45.60;;;;;;4416188;32;20094;-63
2022/01/31 10:03:58;;;;;;;5.65;1.30;;;20.10;45.60;;;;;;4415680;32;20105;-63
2022/01/31 10:06:27;;;;;;;3.30;1.10;;;20.20;45.80;;;;;;4416028;32;20122;-63
2022/01/31 10:09:05;;;;;;;3.03;1.20;;;20.10;45.70;;;;;;4415786;32;20180;-63
2022/01/31 10:11:48;;;;;;;6.60;1.15;;;20.10;45.80;;;;;;4416339;32;20379;-63
2022/01/31 10:17:26;;;;;;;4.18;1.20;;;20.10;45.90;;;;;;4416037;32;20094;-63
2022/01/31 10:19:55;;;;;;;2.88;0.80;;;20.00;45.90;;;;;;4401767;32;20075;-63
2022/01/31 10:22:24;;;;;;;4.60;1.15;;;20.10;45.90;;;;;;4415859;32;20079;-63
2022/01/31 10:24:52;;;;;;;3.75;0.90;;;20.00;45.90;;;;;;4415765;32;20093;-63
2022/01/31 10:27:24;;;;;;;3.33;1.00;;;20.00;46.00;;;;;;4415764;32;20082;-63
2022/01/31 10:29:53;;;;;;;3.20;1.00;;;20.10;46.10;;;;;;4415635;32;20435;-63
2022/01/31 10:32:31;;;;;;;2.95;0.85;;;20.00;46.00;;;;;;4415519;32;20246;-63
2022/01/31 10:35:01;;;;;;;3.10;0.93;;;20.00;46.00;;;;;;4415678;32;20099;-63
2022/01/31 10:37:29;;;;;;;4.22;1.27;;;20.00;46.00;;;;;;4415660;32;20095;-63
2022/01/31 10:56:42;;;;;;;4.25;1.10;;;20.00;46.20;;;;;;4415157;32;20071;-63
2022/01/31 10:59:12;;;;;;;9.05;1.23;;;20.00;46.20;;;;;;4415819;32;20066;-63
2022/01/31 11:01:39;;;;;;;6.35;1.08;;;20.00;46.20;;;;;;4415531;32;20165;-63
2022/01/31 11:04:12;;;;;;;5.95;1.20;;;20.00;46.20;;;;;;4414826;32;20112;-63
2022/01/31 11:06:56;;;;;;;7.25;1.27;;;20.00;46.20;;;;;;4415038;32;20422;-63
2022/01/31 11:09:21;;;;;;;3.85;0.85;;;20.00;46.20;;;;;;4415442;32;20449;-63
2022/01/31 11:11:50;;;;;;;5.63;1.20;;;20.00;46.20;;;;;;4415206;32;20577;-63
2022/01/31 11:14:20;;;;;;;4.82;1.15;;;20.00;46.20;;;;;;4415200;32;20194;-63
2022/01/31 11:16:48;;;;;;;4.28;0.98;;;20.10;46.20;;;;;;4401113;32;20517;-63
2022/01/31 11:19:17;;;;;;;2.58;1.00;;;20.00;46.20;;;;;;4415382;32;20090;-63
2022/01/31 11:21:46;;;;;;;4.68;1.42;;;20.00;46.20;;;;;;4414775;32;20087;-63
2022/01/31 11:24:26;;;;;;;3.28;1.20;;;20.00;46.20;;;;;;4414836;32;20087;-63
2022/01/31 11:27:17;;;;;;;3.35;0.98;;;20.00;46.20;;;;;;4415063;32;20075;-63
2022/01/31 11:29:48;;;;;;;5.22;1.33;;;20.00;46.20;;;;;;4414762;32;20093;-63
2022/01/31 11:32:16;;;;;;;1.90;0.77;;;20.00;46.20;;;;;;4415026;32;20079;-63
2022/01/31 11:34:45;;;;;;;4.35;1.20;;;20.00;46.20;;;;;;4400955;32;20148;-63
2022/01/31 11:37:13;;;;;;;4.97;1.27;;;20.00;46.20;;;;;;4414648;32;20162;-63
2022/01/31 11:39:42;;;;;;;3.35;1.20;;;20.00;46.20;;;;;;4414787;32;20117;-63
2022/01/31 11:42:10;;;;;;;3.75;1.10;;;20.00;46.20;;;;;;4414518;32;20537;-63
2022/01/31 11:44:51;;;;;;;4.07;1.25;;;20.10;46.20;;;;;;4414478;32;20224;-63
2022/01/31 11:47:22;;;;;;;5.47;1.45;;;20.10;46.20;;;;;;4414622;32;20063;-63
2022/01/31 11:49:57;;;;;;;3.53;1.08;;;20.10;46.20;;;;;;4414767;32;20071;-63
2022/01/31 11:52:24;;;;;;;3.85;0.90;;;20.10;47.10;;;;;;4414873;32;20083;-63
2022/01/31 11:54:53;;;;;;;4.93;1.08;;;20.10;46.20;;;;;;4414295;32;20111;-63
2022/01/31 11:57:28;;;;;;;5.07;1.17;;;20.10;46.20;;;;;;4414548;32;20089;-63
2022/01/31 12:00:00;;;;;;;2.72;0.95;;;20.00;46.10;;;;;;4414452;32;20078;-63
2022/01/31 12:02:30;;;;;;;3.35;1.10;;;20.00;46.10;;;;;;4414723;32;20236;-63
2022/01/31 12:05:01;;;;;;;3.83;1.20;;;20.10;46.20;;;;;;4413807;32;20137;-63
2022/01/31 12:07:47;;;;;;;4.88;1.23;;;20.00;46.20;;;;;;4414463;32;20153;-63
2022/01/31 12:10:23;;;;;;;5.13;1.40;;;20.10;46.20;;;;;;4414225;32;20066;-63
2022/01/31 12:13:14;;;;;;;3.97;1.00;;;20.00;46.20;;;;;;4414290;32;20228;-60
2022/01/31 12:24:20;;;;;;;6.00;1.48;;;20.00;46.20;;;;;;4425213;32;20105;-63
2022/01/31 12:26:55;;;;;;;5.30;1.40;;;20.00;46.20;;;;;;4429084;32;20137;-63
2022/01/31 12:29:28;;;;;;;4.82;1.25;;;20.00;46.30;;;;;;4424548;32;20123;-64
2022/01/31 12:32:11;;;;;;;5.25;1.20;;;20.00;46.30;;;;;;4428526;32;20070;-63
2022/01/31 12:34:40;;;;;;;8.77;1.57;;;20.10;46.40;;;;;;4414829;32;20441;-64
2022/01/31 12:37:22;;;;;;;7.22;1.58;;;20.10;46.40;;;;;;4401690;32;20211;-63
2022/01/31 12:39:58;;;;;;;6.25;1.63;;;20.10;46.50;;;;;;4427453;32;20188;-63
2022/01/31 12:43:25;;;;;;;3.97;1.17;;;20.10;46.50;;;;;;4422702;32;20077;-63
2022/01/31 12:45:37;;;;;;;6.50;1.27;;;20.10;46.60;;;;;;4422201;32;20094;-63
2022/01/31 12:48:09;;;;;;;5.07;1.35;;;20.10;46.60;;;;;;4422752;32;20502;-63
2022/01/31 12:50:56;;;;;;;6.65;1.60;;;20.10;46.60;;;;;;4428241;32;20525;-63
2022/01/31 12:56:35;;;;;;;4.95;1.20;;;20.20;46.80;;;;;;4428399;32;20148;-64
2022/01/31 12:59:13;;;;;;;8.75;1.83;;;20.10;46.80;;;;;;4428441;32;20212;-63
2022/01/31 13:01:45;;;;;;;6.85;1.48;;;20.20;46.90;;;;;;4428982;32;20082;-63
2022/01/31 13:04:14;;;;;;;5.75;1.95;;;20.20;46.90;;;;;;4428283;32;20157;-63
2022/01/31 13:06:46;;;;;;;4.25;1.35;;;20.20;46.90;;;;;;4428337;32;20093;-63
2022/01/31 13:09:29;;;;;;;5.57;1.33;;;20.10;46.80;;;;;;4424504;32;20225;-64
2022/01/31 13:12:07;;;;;;;4.97;1.40;;;20.10;46.90;;;;;;4428645;32;20098;-64
2022/01/31 13:14:40;;;;;;;8.02;1.65;;;20.10;47.00;;;;;;4427018;32;20084;-63
2022/01/31 13:17:14;;;;;;;10.77;2.10;;;20.10;47.10;;;;;;4426803;32;20071;-63
2022/01/31 13:19:47;;;;;;;5.28;1.65;;;20.10;47.10;;;;;;4427954;32;20154;-63
2022/01/31 13:22:30;;;;;;;5.32;1.52;;;20.10;47.20;;;;;;4425669;32;20082;-64
2022/01/31 13:24:59;;;;;;;8.93;1.48;;;20.10;47.30;;;;;;4428809;32;20156;-63
2022/01/31 13:27:40;;;;;;;6.45;2.10;;;20.10;47.40;;;;;;4428718;32;20082;-64
2022/01/31 13:30:17;;;;;;;8.95;1.92;;;20.10;47.40;;;;;;4428292;32;20219;-64
2022/01/31 13:32:43;;;;;;;9.80;1.92;;;20.10;47.60;;;;;;4428082;32;20062;-64